Saint Onge, South Dakota
Current Conditions -  °F | °C
As of 1:15 AM on Thursday 18 Dec 2014 (Local Time) from KSPF Reporting Station
Haze Haze  
Wind Chill: 14°   Ceiling: Unl
Heat Index: 14°   Visibility: 5mi
Dew Point: 12°   Wind: 3mph
Humidity: 93%   Direction: 140°SE
Pressure: 29.95"   Gusts: NA
Location:  44.55°N, 103.72°W
Report Text: KSPF 180815Z AUTO 14003KT 5SM BR CLR M10/M11 A2995 RMK AO2
Loading
Personal Weather Stations






























Interactive Weather Map New forecast layout! Learn more

10-Day Weather Forecast

Advertisements
Track Severe Weather on mobile